Time;durP1;ratioP1;P1;durP2;ratioP2;P2;SDS_P1;SDS_P2;PMS_P1;PMS_P2;Temp;Humidity;BMP_temperature;BMP_pressure;BME280_temperature;BME280_humidity;BME280_pressure;Samples;Min_cycle;Max_cycle;Signal;HPM_P1;HPM_P2
2023/05/27 04:12:53;;;;;;;10.15;3.60;;;;;;;;;;6311725;22;19962;31
2023/05/27 04:34:15;;;;;;;8.73;3.53;;;;;;;;;;6334946;22;20038;-91
2023/05/27 04:36:27;;;;;;;10.35;3.80;;;;;;;;;;6317466;22;20022;-92
2023/05/27 04:42:36;;;;;;;9.00;4.13;;;;;;;;;;6359601;22;20031;-91
2023/05/27 05:28:01;;;;;;;10.18;3.47;;;;;;;;;;6274769;22;20041;-92
2023/05/27 05:33:54;;;;;;;10.25;3.60;;;;;;;;;;6334772;22;20045;-95
2023/05/27 06:41:16;;;;;;;9.05;3.40;;;;;;;;;;6309748;22;19921;-95
2023/05/27 06:44:14;;;;;;;10.82;3.40;;;;;;;;;;6321856;22;20011;-96
2023/05/27 06:47:17;;;;;;;9.82;3.30;;;;;;;;;;6265663;22;20004;-96
2023/05/27 06:49:46;;;;;;;11.23;3.58;;;;;;;;;;6263890;22;19995;-96
2023/05/27 06:52:12;;;;;;;10.00;3.47;;;;;;;;;;6320680;22;20451;-96
2023/05/27 06:55:17;;;;;;;8.90;3.40;;;;;;;;;;6344862;22;20068;-95
2023/05/27 06:57:43;;;;;;;12.45;3.88;;;;;;;;;;6301478;22;20439;-94
2023/05/27 07:00:09;;;;;;;9.68;3.30;;;;;;;;;;6315586;22;20011;-92
2023/05/27 07:05:23;;;;;;;8.80;3.30;;;;;;;;;;6342773;22;20041;-93
2023/05/27 07:07:49;;;;;;;10.02;3.40;;;;;;;;;;6312996;22;20024;-95
2023/05/27 07:10:15;;;;;;;8.40;3.30;;;;;;;;;;6314232;22;20008;-94
2023/05/27 07:12:51;;;;;;;10.73;3.65;;;;;;;;;;6312908;22;20096;-94
2023/05/27 07:15:18;;;;;;;9.25;3.05;;;;;;;;;;6312604;22;20007;-93
2023/05/27 07:18:29;;;;;;;8.07;3.17;;;;;;;;;;6313033;22;20006;-92
2023/05/27 07:20:50;;;;;;;9.40;3.25;;;;;;;;;;6324505;22;20022;-94
2023/05/27 07:23:16;;;;;;;9.43;3.47;;;;;;;;;;6313825;22;20094;-94
2023/05/27 07:25:42;;;;;;;8.40;3.40;;;;;;;;;;6312691;22;20002;-95
2023/05/27 07:34:32;;;;;;;10.13;3.22;;;;;;;;;;6278671;22;20030;-96
2023/05/27 07:57:21;;;;;;;11.13;3.58;;;;;;;;;;6341201;22;20054;-96
2023/05/27 08:47:55;;;;;;;8.52;3.63;;;;;;;;;;6312775;22;20068;-93
2023/05/27 08:50:28;;;;;;;9.02;3.92;;;;;;;;;;6278397;22;20011;-96
2023/05/27 08:52:54;;;;;;;8.75;3.58;;;;;;;;;;6279351;22;20015;-95
2023/05/27 08:55:25;;;;;;;19.00;4.15;;;;;;;;;;6282959;22;20087;-93
2023/05/27 08:58:02;;;;;;;14.30;3.90;;;;;;;;;;6283303;22;20003;-95
2023/05/27 09:04:04;;;;;;;10.32;3.85;;;;;;;;;;6174622;22;20529;-92
2023/05/27 09:06:57;;;;;;;9.13;3.50;;;;;;;;;;6284723;22;20081;-94
2023/05/27 09:12:49;;;;;;;7.53;3.30;;;;;;;;;;6293517;22;20017;-94
2023/05/27 09:18:31;;;;;;;12.35;3.88;;;;;;;;;;6246255;23;20004;-96
2023/05/27 09:21:00;;;;;;;9.45;3.75;;;;;;;;;;6243247;22;20023;-95
2023/05/27 09:23:26;;;;;;;9.15;3.95;;;;;;;;;;6308791;22;19999;-94
2023/05/27 09:25:53;;;;;;;10.30;4.07;;;;;;;;;;6308384;22;20007;-95
2023/05/27 09:28:48;;;;;;;11.35;4.57;;;;;;;;;;6308408;22;20333;-95
2023/05/27 09:31:20;;;;;;;9.90;3.90;;;;;;;;;;6286025;22;20003;-92
2023/05/27 09:34:16;;;;;;;10.75;4.10;;;;;;;;;;6308438;22;20021;-93
2023/05/27 09:36:54;;;;;;;12.35;4.22;;;;;;;;;;6282211;22;20016;-93
2023/05/27 09:39:24;;;;;;;11.00;3.80;;;;;;;;;;6308612;22;20003;-94
2023/05/27 09:41:51;;;;;;;12.43;4.47;;;;;;;;;;6308614;22;20011;-94
2023/05/27 09:44:17;;;;;;;11.02;4.30;;;;;;;;;;6309169;22;20317;-94
2023/05/27 09:46:47;;;;;;;9.93;4.22;;;;;;;;;;6308792;22;20014;-92
2023/05/27 09:49:15;;;;;;;10.75;4.00;;;;;;;;;;6309170;22;20006;-91
2023/05/27 09:51:44;;;;;;;11.38;4.15;;;;;;;;;;6308230;22;20082;-93
2023/05/27 09:54:19;;;;;;;12.18;4.72;;;;;;;;;;6309809;22;20007;-94
2023/05/27 09:56:48;;;;;;;11.98;4.47;;;;;;;;;;6309915;22;20010;-95
2023/05/27 09:59:14;;;;;;;10.57;4.25;;;;;;;;;;6308269;22;20003;-96
2023/05/27 10:01:44;;;;;;;11.10;4.20;;;;;;;;;;6308309;22;20006;-92
2023/05/27 10:04:10;;;;;;;9.68;3.80;;;;;;;;;;6308310;22;20014;-91
2023/05/27 10:06:38;;;;;;;10.93;4.15;;;;;;;;;;6309118;22;20006;-91
2023/05/27 10:09:04;;;;;;;13.88;4.45;;;;;;;;;;6308235;22;20042;-92
2023/05/27 10:11:38;;;;;;;11.77;4.20;;;;;;;;;;6308027;22;20428;-92
2023/05/27 10:14:05;;;;;;;10.32;4.25;;;;;;;;;;6308036;22;20078;-91
2023/05/27 10:16:31;;;;;;;10.65;4.47;;;;;;;;;;6311414;22;20007;-91
2023/05/27 10:18:58;;;;;;;11.90;4.53;;;;;;;;;;6307792;22;20447;-89
2023/05/27 10:21:26;;;;;;;8.90;4.10;;;;;;;;;;6320230;22;20015;-92
2023/05/27 10:23:59;;;;;;;13.20;4.13;;;;;;;;;;6315206;22;20022;-94
2023/05/27 10:26:36;;;;;;;13.63;4.35;;;;;;;;;;6309125;22;20003;-92
2023/05/27 10:29:07;;;;;;;11.48;4.82;;;;;;;;;;6337540;22;20009;-94
2023/05/27 10:31:34;;;;;;;10.70;4.65;;;;;;;;;;6313054;22;20002;-93
2023/05/27 10:34:00;;;;;;;13.43;5.15;;;;;;;;;;6314049;22;20007;-93
2023/05/27 10:36:31;;;;;;;10.40;4.20;;;;;;;;;;6313616;22;19998;-93
2023/05/27 10:39:22;;;;;;;12.50;4.50;;;;;;;;;;6315070;22;20007;-96
2023/05/27 10:41:52;;;;;;;10.25;4.63;;;;;;;;;;6318612;22;20048;-93
2023/05/27 10:44:44;;;;;;;9.80;4.20;;;;;;;;;;6314699;22;20067;-93
2023/05/27 10:47:14;;;;;;;12.35;4.28;;;;;;;;;;6311786;22;20010;-91
2023/05/27 10:49:41;;;;;;;10.65;4.47;;;;;;;;;;6312990;22;20032;-90
2023/05/27 10:52:12;;;;;;;8.32;4.30;;;;;;;;;;6316079;22;20010;-96
2023/05/27 10:57:21;;;;;;;16.85;4.68;;;;;;;;;;6347800;22;20034;-95
2023/05/27 10:59:54;;;;;;;10.63;4.50;;;;;;;;;;6316782;22;20445;-94
2023/05/27 11:02:25;;;;;;;10.52;4.40;;;;;;;;;;6319096;22;20011;-96
2023/05/27 11:05:17;;;;;;;10.57;4.60;;;;;;;;;;6319246;22;20059;-93
2023/05/27 11:07:43;;;;;;;9.32;3.88;;;;;;;;;;6307330;22;20003;-91
2023/05/27 11:10:10;;;;;;;11.05;4.75;;;;;;;;;;6313708;22;20094;-89
2023/05/27 11:12:36;;;;;;;10.98;4.63;;;;;;;;;;6314267;22;20015;-93
2023/05/27 11:15:21;;;;;;;11.13;4.68;;;;;;;;;;6315751;22;19999;-94
2023/05/27 11:17:51;;;;;;;10.82;4.40;;;;;;;;;;6315022;22;20003;-95
2023/05/27 11:20:18;;;;;;;10.52;4.57;;;;;;;;;;6342379;22;20078;-95
2023/05/27 11:22:55;;;;;;;11.98;4.55;;;;;;;;;;6312913;22;20003;-93
2023/05/27 11:28:32;;;;;;;;;;;;;;;;;;6340911;22;20014;-93
2023/05/27 11:31:07;;;;;;;13.68;4.60;;;;;;;;;;6313464;22;19899;-94
2023/05/27 11:33:55;;;;;;;10.15;3.95;;;;;;;;;;6313232;22;20018;-94
2023/05/27 11:36:58;;;;;;;10.25;4.53;;;;;;;;;;6312322;22;20090;-92
2023/05/27 11:45:44;;;;;;;14.95;4.97;;;;;;;;;;6343488;22;20006;-91
2023/05/27 11:48:12;;;;;;;11.65;4.55;;;;;;;;;;6343139;22;20003;-91
2023/05/27 11:51:21;;;;;;;11.60;4.40;;;;;;;;;;6320337;22;19987;-91
2023/05/27 12:10:41;;;;;;;10.52;4.45;;;;;;;;;;6343229;22;20021;-93
2023/05/27 12:27:48;;;;;;;13.68;4.45;;;;;;;;;;6354466;22;20061;-92
2023/05/27 12:33:24;;;;;;;13.40;4.75;;;;;;;;;;6348981;22;20021;-95
2023/05/27 12:35:57;;;;;;;11.48;4.70;;;;;;;;;;6344920;22;20004;-92
2023/05/27 12:38:51;;;;;;;9.20;3.88;;;;;;;;;;6349954;22;20002;-94
2023/05/27 12:44:20;;;;;;;;;;;;;;;;;;6351376;22;20067;-96
2023/05/27 12:47:14;;;;;;;13.05;4.35;;;;;;;;;;6318476;22;19899;-93
2023/05/27 12:59:04;;;;;;;13.05;4.40;;;;;;;;;;6336562;22;20031;-96
2023/05/27 13:04:51;;;;;;;12.43;4.80;;;;;;;;;;6344780;22;20036;-93
2023/05/27 13:07:43;;;;;;;11.57;4.53;;;;;;;;;;6316946;22;20013;-93
2023/05/27 13:10:24;;;;;;;;;;;;;;;;;;;;;
2023/05/27 13:29:44;;;;;;;11.65;5.13;;;;;;;;;;6337360;22;20041;-94
2023/05/27 13:32:18;;;;;;;20.38;8.40;;;;;;;;;;6314383;22;20493;-95
2023/05/27 14:48:39;;;;;;;15.60;5.38;;;;;;;;;;6302638;22;20765;31
2023/05/27 15:40:18;;;;;;;15.13;6.20;;;;;;;;;;6315629;22;20061;-95
2023/05/27 15:45:32;;;;;;;14.75;5.35;;;;;;;;;;6341874;22;20026;-92
2023/05/27 15:47:58;;;;;;;11.73;4.82;;;;;;;;;;6312751;22;19999;-95
2023/05/27 15:50:25;;;;;;;11.82;4.95;;;;;;;;;;6312563;22;20369;-95
2023/05/27 15:52:51;;;;;;;12.07;5.28;;;;;;;;;;6314034;22;20022;-93
2023/05/27 15:55:17;;;;;;;14.68;5.60;;;;;;;;;;6315092;22;20025;-95
2023/05/27 15:57:45;;;;;;;14.70;5.88;;;;;;;;;;6315243;22;20007;-95
2023/05/27 16:00:14;;;;;;;16.10;5.90;;;;;;;;;;6314847;22;20063;-95
2023/05/27 16:02:43;;;;;;;13.38;5.30;;;;;;;;;;6314608;22;20392;-95
2023/05/27 16:05:16;;;;;;;11.50;5.18;;;;;;;;;;6314774;22;20014;-94
2023/05/27 16:07:48;;;;;;;13.73;4.82;;;;;;;;;;6314635;22;19998;-94
2023/05/27 16:10:37;;;;;;;13.77;5.20;;;;;;;;;;6314229;22;20014;-94
2023/05/27 16:13:04;;;;;;;15.02;5.72;;;;;;;;;;6308987;22;20253;-94
2023/05/27 16:15:42;;;;;;;13.40;5.88;;;;;;;;;;6314826;22;20002;-94
2023/05/27 16:18:43;;;;;;;16.75;4.82;;;;;;;;;;6315054;22;20006;-93
2023/05/27 16:24:20;;;;;;;13.30;5.57;;;;;;;;;;6277797;22;20052;-93
2023/05/27 16:26:47;;;;;;;12.73;5.68;;;;;;;;;;6252583;22;20007;-93
2023/05/27 16:29:13;;;;;;;15.52;5.93;;;;;;;;;;6252386;22;20057;-92
2023/05/27 16:35:05;;;;;;;18.10;7.22;;;;;;;;;;6277238;22;20050;-94
2023/05/27 16:37:32;;;;;;;21.00;10.07;;;;;;;;;;6268571;22;20090;-93
2023/05/27 16:40:28;;;;;;;22.52;12.25;;;;;;;;;;6314929;22;20007;-94
2023/05/27 16:43:02;;;;;;;19.23;9.60;;;;;;;;;;6340544;22;19998;-92
2023/05/27 16:45:29;;;;;;;17.15;7.45;;;;;;;;;;6308519;22;20015;-90
2023/05/27 16:48:11;;;;;;;12.70;5.90;;;;;;;;;;6312197;22;20011;-93
2023/05/27 17:02:00;;;;;;;16.67;6.93;;;;;;;;;;6322403;22;20018;-95
2023/05/27 17:04:26;;;;;;;15.00;6.20;;;;;;;;;;6317998;22;20006;-92
2023/05/27 17:17:09;;;;;;;15.20;6.40;;;;;;;;;;6339925;22;20027;-93
2023/05/27 17:30:50;;;;;;;11.70;5.32;;;;;;;;;;6331132;22;20027;-93
2023/05/27 17:42:03;;;;;;;20.27;8.15;;;;;;;;;;6319092;22;20006;-96
2023/05/27 17:44:29;;;;;;;12.65;5.95;;;;;;;;;;6294380;22;20007;-91
2023/05/27 21:19:45;;;;;;;;;;;;;;;;;;;;;
2023/05/27 22:21:51;;;;;;;;;;;;;;;;;;;;;
2023/05/27 22:43:21;;;;;;;11.30;3.55;;;;;;;;;;6269874;22;20016;-95
2023/05/27 22:55:03;;;;;;;;;;;;;;;;;;;;;
